Time;durP1;ratioP1;P1;durP2;ratioP2;P2;SDS_P1;SDS_P2;PMS_P1;PMS_P2;Temp;Humidity;BMP_temperature;BMP_pressure;BME280_temperature;BME280_humidity;BME280_pressure;Samples;Min_cycle;Max_cycle;Signal;HPM_P1;HPM_P2
2021/03/10 00:01:45;;;;;;;;;;;20.00;35.20;;;;;;500362;237;1444;-72
2021/03/10 00:03:46;;;;;;;;;;;19.90;35.50;;;;;;500398;237;1036;-72
2021/03/10 00:05:48;;;;;;;;;;;19.90;35.70;;;;;;500342;237;1541;-73
2021/03/10 00:07:49;;;;;;;;;;;19.90;35.70;;;;;;500387;237;1146;-72
2021/03/10 00:09:50;;;;;;;;;;;19.90;35.70;;;;;;500411;237;2132;-72
2021/03/10 00:11:51;;;;;;;;;;;19.90;35.70;;;;;;500312;237;1482;-72
2021/03/10 00:13:53;;;;;;;;;;;19.90;35.70;;;;;;500480;237;1190;-72
2021/03/10 00:15:54;;;;;;;;;;;19.90;35.70;;;;;;500316;234;1292;-72
2021/03/10 00:17:55;;;;;;;;;;;19.90;35.70;;;;;;500470;237;1188;-72
2021/03/10 00:19:56;;;;;;;;;;;19.90;35.70;;;;;;500390;237;1015;-72
2021/03/10 00:21:58;;;;;;;;;;;19.90;35.70;;;;;;500342;237;1175;-72
2021/03/10 00:23:59;;;;;;;;;;;19.80;35.70;;;;;;500374;237;1323;-73
2021/03/10 00:26:00;;;;;;;;;;;19.80;35.60;;;;;;500359;237;1057;-73
2021/03/10 00:28:02;;;;;;;;;;;19.90;35.60;;;;;;500530;237;1049;-72
2021/03/10 00:30:03;;;;;;;;;;;19.90;35.60;;;;;;500382;237;2183;-72
2021/03/10 00:32:05;;;;;;;;;;;20.00;35.40;;;;;;500431;237;1176;-72
2021/03/10 00:34:06;;;;;;;;;;;19.90;35.40;;;;;;500446;237;1313;-72
2021/03/10 00:36:07;;;;;;;;;;;19.90;35.40;;;;;;500435;237;1206;-72
2021/03/10 00:38:09;;;;;;;;;;;19.90;35.40;;;;;;500361;237;1110;-72
2021/03/10 00:40:10;;;;;;;;;;;19.90;35.50;;;;;;500392;237;965;-72
2021/03/10 00:42:11;;;;;;;;;;;19.80;35.50;;;;;;500402;237;1049;-72
2021/03/10 00:44:12;;;;;;;;;;;19.80;35.60;;;;;;500429;237;994;-72
2021/03/10 00:46:14;;;;;;;;;;;19.90;35.50;;;;;;500379;237;1125;-72
2021/03/10 00:48:15;;;;;;;;;;;20.00;35.50;;;;;;500422;237;982;-73
2021/03/10 00:50:16;;;;;;;;;;;19.90;35.50;;;;;;500426;237;2175;-72
2021/03/10 00:52:17;;;;;;;;;;;20.00;35.30;;;;;;500366;237;1122;-72
2021/03/10 00:54:19;;;;;;;;;;;20.00;35.40;;;;;;500344;237;942;-72
2021/03/10 00:56:20;;;;;;;;;;;19.90;35.30;;;;;;500333;237;1308;-73
2021/03/10 00:58:21;;;;;;;;;;;19.90;35.40;;;;;;500497;237;1169;-72
2021/03/10 01:00:23;;;;;;;;;;;19.80;35.50;;;;;;500541;237;1080;-73
2021/03/10 01:02:24;;;;;;;;;;;19.80;35.50;;;;;;500361;237;1476;-72
2021/03/10 01:04:25;;;;;;;;;;;19.90;35.50;;;;;;500349;237;930;-72
2021/03/10 01:06:26;;;;;;;;;;;19.90;35.50;;;;;;500316;237;1138;-72
2021/03/10 01:08:28;;;;;;;;;;;19.90;35.40;;;;;;500376;237;982;-72
2021/03/10 01:10:29;;;;;;;;;;;19.90;35.40;;;;;;500427;237;2179;-72
2021/03/10 01:12:30;;;;;;;;;;;19.80;35.50;;;;;;500326;237;1069;-72
2021/03/10 01:14:32;;;;;;;;;;;19.80;35.50;;;;;;500392;237;973;-72
2021/03/10 01:16:33;;;;;;;;;;;19.80;35.60;;;;;;500291;237;1344;-72
2021/03/10 01:18:34;;;;;;;;;;;19.80;35.60;;;;;;500344;237;1048;-72
2021/03/10 01:20:35;;;;;;;;;;;19.80;35.60;;;;;;500365;237;1015;-72
2021/03/10 01:22:37;;;;;;;;;;;19.80;35.50;;;;;;500399;237;1131;-72
2021/03/10 01:24:38;;;;;;;;;;;19.80;35.60;;;;;;500548;237;1042;-73
2021/03/10 01:26:39;;;;;;;;;;;19.90;35.60;;;;;;500331;237;1106;-73
2021/03/10 01:28:40;;;;;;;;;;;19.80;35.50;;;;;;500339;237;993;-73
2021/03/10 01:30:42;;;;;;;;;;;19.80;35.70;;;;;;500333;237;2192;-73
2021/03/10 01:32:43;;;;;;;;;;;19.80;35.70;;;;;;500430;237;1429;-72
2021/03/10 01:34:44;;;;;;;;;;;19.80;35.80;;;;;;500416;237;939;-72
2021/03/10 01:36:46;;;;;;;;;;;19.80;35.80;;;;;;500309;237;1207;-72
2021/03/10 01:38:47;;;;;;;;;;;19.80;35.70;;;;;;500398;237;1038;-73
2021/03/10 01:40:48;;;;;;;;;;;19.80;35.70;;;;;;500347;237;1231;-73
2021/03/10 01:42:49;;;;;;;;;;;19.80;35.70;;;;;;500313;237;1071;-72
2021/03/10 01:44:51;;;;;;;;;;;19.70;35.80;;;;;;500364;237;943;-72
2021/03/10 01:46:52;;;;;;;;;;;19.70;35.90;;;;;;500356;237;1131;-72
2021/03/10 01:48:54;;;;;;;;;;;19.70;35.90;;;;;;500580;237;966;-72
2021/03/10 01:50:55;;;;;;;;;;;19.70;36.00;;;;;;500343;237;2136;-72
2021/03/10 01:52:56;;;;;;;;;;;19.70;35.90;;;;;;500441;237;1168;-72
2021/03/10 01:54:57;;;;;;;;;;;19.70;35.90;;;;;;500437;237;932;-72
2021/03/10 01:56:58;;;;;;;;;;;19.70;35.80;;;;;;500338;237;1185;-72
2021/03/10 01:59:00;;;;;;;;;;;19.70;35.80;;;;;;500376;237;1083;-72
2021/03/10 02:01:01;;;;;;;;;;;19.80;35.80;;;;;;500331;237;1200;-72
2021/03/10 02:03:02;;;;;;;;;;;19.70;35.80;;;;;;500271;237;1186;-72
2021/03/10 02:05:03;;;;;;;;;;;19.70;35.80;;;;;;500371;237;958;-72
2021/03/10 02:07:05;;;;;;;;;;;19.70;35.60;;;;;;500355;237;1023;-73
2021/03/10 02:09:06;;;;;;;;;;;19.70;36.00;;;;;;500382;237;972;-73
2021/03/10 02:11:07;;;;;;;;;;;19.70;36.00;;;;;;500377;237;2211;-72
2021/03/10 02:13:09;;;;;;;;;;;19.70;36.00;;;;;;500520;237;1331;-72
2021/03/10 02:15:10;;;;;;;;;;;19.70;35.90;;;;;;500422;237;972;-72
2021/03/10 02:17:11;;;;;;;;;;;19.70;35.90;;;;;;500460;237;1197;-72
2021/03/10 02:19:12;;;;;;;;;;;19.70;35.90;;;;;;500399;237;989;-72
2021/03/10 02:21:14;;;;;;;;;;;19.70;36.00;;;;;;500438;237;1299;-72
2021/03/10 02:23:15;;;;;;;;;;;19.70;36.00;;;;;;500359;237;1029;-72
2021/03/10 02:25:16;;;;;;;;;;;19.70;35.90;;;;;;500492;237;1183;-72
2021/03/10 02:27:31;;;;;;;;;;;19.80;35.80;;;;;;500410;237;1169;-72
2021/03/10 02:29:19;;;;;;;;;;;19.70;35.80;;;;;;500345;237;2104;-73
2021/03/10 02:31:21;;;;;;;;;;;19.70;35.80;;;;;;500345;237;2175;-72
2021/03/10 02:33:22;;;;;;;;;;;19.70;35.80;;;;;;500443;237;1188;-72
2021/03/10 02:35:23;;;;;;;;;;;19.70;35.90;;;;;;500372;237;1146;-72
2021/03/10 02:37:24;;;;;;;;;;;19.70;35.90;;;;;;500401;237;971;-72
2021/03/10 02:39:26;;;;;;;;;;;19.70;35.80;;;;;;500383;237;944;-72
2021/03/10 02:41:27;;;;;;;;;;;19.80;35.70;;;;;;500435;237;1026;-72
2021/03/10 02:43:28;;;;;;;;;;;19.90;35.60;;;;;;500431;237;976;-73
2021/03/10 02:45:30;;;;;;;;;;;19.90;35.40;;;;;;500402;237;1011;-72
2021/03/10 02:47:31;;;;;;;;;;;19.90;35.50;;;;;;500324;234;1245;-72
2021/03/10 02:49:32;;;;;;;;;;;19.90;35.50;;;;;;500388;237;949;-72
2021/03/10 02:51:33;;;;;;;;;;;19.90;35.40;;;;;;500409;237;2188;-72
2021/03/10 02:53:35;;;;;;;;;;;19.90;35.40;;;;;;500436;237;1112;-72
2021/03/10 02:55:36;;;;;;;;;;;19.90;35.20;;;;;;500409;237;1090;-72
2021/03/10 02:57:37;;;;;;;;;;;19.80;35.20;;;;;;500402;237;1287;-72
2021/03/10 02:59:39;;;;;;;;;;;19.90;35.50;;;;;;500437;237;1044;-72
2021/03/10 03:01:40;;;;;;;;;;;19.80;35.60;;;;;;500317;237;984;-73
2021/03/10 03:03:41;;;;;;;;;;;19.80;35.70;;;;;;500451;237;1157;-72
2021/03/10 03:05:42;;;;;;;;;;;19.80;35.60;;;;;;500308;237;959;-72
2021/03/10 03:07:44;;;;;;;;;;;19.90;35.50;;;;;;500367;237;975;-72
2021/03/10 03:09:45;;;;;;;;;;;19.90;35.40;;;;;;500346;237;972;-72
2021/03/10 03:11:46;;;;;;;;;;;19.90;35.50;;;;;;500357;237;2160;-72
2021/03/10 03:13:47;;;;;;;;;;;19.90;35.50;;;;;;500349;237;1119;-73
2021/03/10 03:15:49;;;;;;;;;;;19.90;35.30;;;;;;500326;237;1109;-72
2021/03/10 03:17:50;;;;;;;;;;;19.90;35.40;;;;;;500365;237;1297;-72
2021/03/10 03:19:51;;;;;;;;;;;20.00;35.40;;;;;;500397;237;1013;-72
2021/03/10 03:21:53;;;;;;;;;;;19.90;35.30;;;;;;500368;237;1014;-72
2021/03/10 03:23:54;;;;;;;;;;;19.90;35.40;;;;;;500427;237;1034;-72
2021/03/10 03:25:55;;;;;;;;;;;19.80;35.40;;;;;;500403;237;1187;-73
2021/03/10 03:27:56;;;;;;;;;;;19.90;35.40;;;;;;500361;237;1016;-73
2021/03/10 03:29:58;;;;;;;;;;;19.90;35.40;;;;;;500449;237;1313;-72
2021/03/10 03:31:59;;;;;;;;;;;19.80;35.40;;;;;;500372;237;1097;-72
2021/03/10 03:34:00;;;;;;;;;;;19.80;35.50;;;;;;500427;237;1190;-72
2021/03/10 03:36:02;;;;;;;;;;;19.90;35.50;;;;;;500300;237;1111;-72
2021/03/10 03:38:03;;;;;;;;;;;19.90;35.40;;;;;;500436;237;1067;-72
2021/03/10 03:40:04;;;;;;;;;;;19.90;35.40;;;;;;500422;237;1075;-72
2021/03/10 03:42:06;;;;;;;;;;;19.90;35.40;;;;;;500333;237;1093;-72
2021/03/10 03:44:07;;;;;;;;;;;19.90;35.40;;;;;;500340;237;1118;-72
2021/03/10 03:46:08;;;;;;;;;;;19.90;35.40;;;;;;500305;237;1422;-72
2021/03/10 03:48:09;;;;;;;;;;;19.90;35.30;;;;;;500294;237;1154;-72
2021/03/10 03:50:11;;;;;;;;;;;20.00;35.20;;;;;;500348;237;2171;-72
2021/03/10 03:52:12;;;;;;;;;;;19.90;35.20;;;;;;500392;237;1061;-72
2021/03/10 03:54:13;;;;;;;;;;;20.00;35.20;;;;;;500385;237;958;-73
2021/03/10 03:56:15;;;;;;;;;;;20.10;35.10;;;;;;500350;237;1219;-72
2021/03/10 03:58:16;;;;;;;;;;;20.10;35.10;;;;;;500327;237;967;-72
2021/03/10 04:00:18;;;;;;;;;;;20.00;35.20;;;;;;500352;237;1030;-72
2021/03/10 04:02:18;;;;;;;;;;;20.00;35.20;;;;;;500416;237;2277;-73
2021/03/10 04:04:20;;;;;;;;;;;19.80;35.30;;;;;;500471;237;1106;-72
2021/03/10 04:06:21;;;;;;;;;;;19.90;35.40;;;;;;500353;237;1324;-73
2021/03/10 04:08:22;;;;;;;;;;;20.00;35.30;;;;;;500441;237;1119;-72
2021/03/10 04:10:24;;;;;;;;;;;20.00;35.20;;;;;;500345;237;2191;-72
2021/03/10 04:12:25;;;;;;;;;;;20.00;35.30;;;;;;500420;237;1146;-72
2021/03/10 04:14:26;;;;;;;;;;;20.00;35.20;;;;;;500336;237;1014;-72
2021/03/10 04:16:27;;;;;;;;;;;20.00;35.20;;;;;;500339;237;1163;-72
2021/03/10 04:18:29;;;;;;;;;;;20.00;35.20;;;;;;500376;237;1177;-73
2021/03/10 04:20:30;;;;;;;;;;;20.00;35.20;;;;;;500396;237;1204;-72
2021/03/10 04:22:31;;;;;;;;;;;20.00;35.30;;;;;;500332;237;1129;-72
2021/03/10 04:24:33;;;;;;;;;;;20.00;35.20;;;;;;500400;237;981;-72
2021/03/10 04:26:34;;;;;;;;;;;20.00;35.20;;;;;;500333;237;1529;-72
2021/03/10 04:28:35;;;;;;;;;;;20.00;35.30;;;;;;500389;237;947;-72
2021/03/10 04:30:36;;;;;;;;;;;20.00;35.20;;;;;;500285;237;2195;-72
2021/03/10 04:32:38;;;;;;;;;;;20.00;35.20;;;;;;500322;237;1028;-72
2021/03/10 04:34:39;;;;;;;;;;;20.00;35.20;;;;;;500378;237;1176;-73
2021/03/10 04:36:40;;;;;;;;;;;20.00;35.20;;;;;;500302;237;1201;-73
2021/03/10 04:38:41;;;;;;;;;;;20.10;35.20;;;;;;500421;237;953;-72
2021/03/10 04:40:43;;;;;;;;;;;20.10;35.00;;;;;;500342;237;1224;-72
2021/03/10 04:42:44;;;;;;;;;;;20.10;35.00;;;;;;500360;237;1123;-72
2021/03/10 04:44:45;;;;;;;;;;;20.10;35.10;;;;;;500376;237;930;-72
2021/03/10 04:46:47;;;;;;;;;;;20.20;34.90;;;;;;500345;237;1500;-72
2021/03/10 04:48:48;;;;;;;;;;;20.20;34.90;;;;;;500336;237;1168;-72
2021/03/10 04:50:49;;;;;;;;;;;20.20;34.90;;;;;;500325;237;2520;-72
2021/03/10 04:52:50;;;;;;;;;;;20.30;34.90;;;;;;500300;237;1560;-72
2021/03/10 04:54:52;;;;;;;;;;;20.20;34.90;;;;;;500352;237;1014;-72
2021/03/10 04:56:53;;;;;;;;;;;20.30;34.80;;;;;;500405;237;1202;-72
2021/03/10 04:58:54;;;;;;;;;;;20.30;34.80;;;;;;500412;237;1071;-72
2021/03/10 05:00:56;;;;;;;;;;;20.30;34.80;;;;;;500415;237;1240;-72
2021/03/10 05:02:57;;;;;;;;;;;20.30;34.70;;;;;;500498;237;1076;-72
2021/03/10 05:04:58;;;;;;;;;;;20.40;34.70;;;;;;500388;237;1153;-73
2021/03/10 05:06:59;;;;;;;;;;;20.40;34.80;;;;;;500337;237;1068;-73
2021/03/10 05:09:01;;;;;;;;;;;20.30;34.90;;;;;;500426;237;1051;-73
2021/03/10 05:11:02;;;;;;;;;;;20.30;34.90;;;;;;500365;237;2176;-73
2021/03/10 05:13:03;;;;;;;;;;;20.40;34.80;;;;;;500529;237;1159;-73
2021/03/10 05:15:05;;;;;;;;;;;20.40;34.90;;;;;;500318;237;972;-73
2021/03/10 05:17:06;;;;;;;;;;;20.30;34.90;;;;;;500292;237;982;-72
2021/03/10 05:19:07;;;;;;;;;;;20.40;34.90;;;;;;500195;237;1116;-72
2021/03/10 05:21:09;;;;;;;;;;;20.30;34.90;;;;;;500238;237;957;-72
2021/03/10 05:23:10;;;;;;;;;;;20.40;34.90;;;;;;500340;237;1050;-72
2021/03/10 05:25:11;;;;;;;;;;;20.40;34.90;;;;;;500366;237;967;-72
2021/03/10 05:27:12;;;;;;;;;;;20.40;34.70;;;;;;500313;237;1120;-72
2021/03/10 05:29:14;;;;;;;;;;;20.40;34.80;;;;;;500298;237;1018;-72
2021/03/10 05:31:15;;;;;;;;;;;20.40;34.80;;;;;;500308;237;2196;-72
2021/03/10 05:33:16;;;;;;;;;;;20.40;34.80;;;;;;500257;237;1163;-73
2021/03/10 05:35:18;;;;;;;;;;;20.40;34.80;;;;;;500317;237;1307;-73
2021/03/10 05:37:19;;;;;;;;;;;20.40;34.90;;;;;;500223;237;1163;-72
2021/03/10 05:39:20;;;;;;;;;;;20.30;34.80;;;;;;500266;237;967;-72
2021/03/10 05:41:22;;;;;;;;;;;20.40;34.90;;;;;;500258;237;1259;-72
2021/03/10 05:43:23;;;;;;;;;;;20.40;34.80;;;;;;500302;237;1104;-72
2021/03/10 05:45:24;;;;;;;;;;;20.40;34.90;;;;;;500233;237;1027;-72
2021/03/10 05:47:26;;;;;;;;;;;20.30;34.90;;;;;;500219;237;1074;-72
2021/03/10 05:49:27;;;;;;;;;;;20.40;34.90;;;;;;500143;237;1178;-72
2021/03/10 05:51:28;;;;;;;;;;;20.30;34.90;;;;;;500144;237;2133;-72
2021/03/10 05:53:29;;;;;;;;;;;20.50;34.80;;;;;;500293;237;1094;-72
2021/03/10 05:55:31;;;;;;;;;;;20.40;34.70;;;;;;500097;237;1085;-72
2021/03/10 05:57:32;;;;;;;;;;;20.50;34.70;;;;;;500183;237;1092;-72
2021/03/10 05:59:33;;;;;;;;;;;20.50;34.70;;;;;;500148;237;1003;-72
2021/03/10 06:01:35;;;;;;;;;;;20.40;34.70;;;;;;500230;237;1102;-72
2021/03/10 06:03:36;;;;;;;;;;;20.50;34.70;;;;;;500215;237;1256;-72
2021/03/10 06:05:37;;;;;;;;;;;20.50;34.60;;;;;;500246;237;1210;-72
2021/03/10 06:07:38;;;;;;;;;;;20.40;34.60;;;;;;500256;237;1096;-72
2021/03/10 06:09:40;;;;;;;;;;;20.50;34.60;;;;;;500098;237;948;-73
2021/03/10 06:11:41;;;;;;;;;;;20.40;34.70;;;;;;499958;237;2175;-72
2021/03/10 06:13:42;;;;;;;;;;;20.40;34.70;;;;;;500140;237;1190;-72
2021/03/10 06:15:44;;;;;;;;;;;20.40;34.60;;;;;;500085;237;1212;-72
2021/03/10 06:17:45;;;;;;;;;;;20.40;34.60;;;;;;500067;237;1078;-72
2021/03/10 06:19:46;;;;;;;;;;;20.30;34.70;;;;;;500069;237;1307;-72
2021/03/10 06:21:48;;;;;;;;;;;20.40;34.70;;;;;;500024;237;1043;-72
2021/03/10 06:23:49;;;;;;;;;;;20.40;34.60;;;;;;500157;237;985;-72
2021/03/10 06:25:50;;;;;;;;;;;20.30;34.60;;;;;;500140;237;1071;-72
2021/03/10 06:27:52;;;;;;;;;;;20.40;34.70;;;;;;500082;237;963;-72
2021/03/10 06:29:53;;;;;;;;;;;20.40;34.60;;;;;;500050;237;1345;-72
2021/03/10 06:31:54;;;;;;;;;;;20.30;34.60;;;;;;500128;237;2175;-72
2021/03/10 06:33:56;;;;;;;;;;;20.40;34.60;;;;;;500117;237;1107;-72
2021/03/10 06:35:57;;;;;;;;;;;20.40;34.60;;;;;;500129;237;1158;-72
2021/03/10 06:37:58;;;;;;;;;;;20.30;34.60;;;;;;499863;237;1076;-72
2021/03/10 06:39:59;;;;;;;;;;;20.40;34.50;;;;;;499915;237;1086;-72
2021/03/10 06:42:01;;;;;;;;;;;20.40;34.50;;;;;;499923;237;1080;-72
2021/03/10 06:44:02;;;;;;;;;;;20.40;34.50;;;;;;499885;237;997;-72
2021/03/10 06:46:03;;;;;;;;;;;20.40;34.60;;;;;;499881;237;1089;-72
2021/03/10 06:48:04;;;;;;;;;;;20.30;34.80;;;;;;499973;237;1178;-72
2021/03/10 06:50:06;;;;;;;;;;;20.30;34.90;;;;;;499838;237;1076;-69
2021/03/10 06:52:08;;;;;;;;;;;20.30;34.70;;;;;;499845;237;2191;-68
2021/03/10 06:54:09;;;;;;;;;;;20.00;35.30;;;;;;499838;237;1105;-69
2021/03/10 06:56:10;;;;;;;;;;;19.70;35.80;;;;;;499819;237;1071;-69
2021/03/10 06:58:13;;;;;;;;;;;19.50;36.10;;;;;;499940;237;1057;-72
2021/03/10 07:00:13;;;;;;;;;;;19.40;36.50;;;;;;499952;237;2082;-73
2021/03/10 07:02:14;;;;;;;;;;;19.70;36.10;;;;;;499861;237;1040;-72
2021/03/10 07:04:15;;;;;;;;;;;19.80;35.80;;;;;;499858;237;1063;-72
2021/03/10 07:06:17;;;;;;;;;;;19.90;35.70;;;;;;499815;237;1224;-72
2021/03/10 07:08:18;;;;;;;;;;;20.00;35.50;;;;;;499834;237;1030;-73
2021/03/10 07:10:19;;;;;;;;;;;20.10;35.40;;;;;;499891;237;1031;-72
2021/03/10 07:12:20;;;;;;;;;;;20.10;35.40;;;;;;499836;237;2132;-72
2021/03/10 07:14:22;;;;;;;;;;;20.10;35.40;;;;;;499728;237;1005;-72
2021/03/10 07:16:23;;;;;;;;;;;20.10;35.30;;;;;;499693;237;1085;-72
2021/03/10 07:18:25;;;;;;;;;;;20.20;35.30;;;;;;499890;237;1154;-72
2021/03/10 07:20:26;;;;;;;;;;;20.20;35.20;;;;;;499730;237;1192;-72
2021/03/10 07:22:27;;;;;;;;;;;20.30;35.10;;;;;;499437;237;1145;-72
2021/03/10 07:24:28;;;;;;;;;;;20.30;34.90;;;;;;499799;237;1040;-72
2021/03/10 07:26:29;;;;;;;;;;;20.30;34.80;;;;;;499842;237;1179;-72
2021/03/10 07:28:31;;;;;;;;;;;20.20;35.10;;;;;;499547;237;1111;-72
2021/03/10 07:30:32;;;;;;;;;;;20.20;35.20;;;;;;499592;237;1038;-72
2021/03/10 07:32:33;;;;;;;;;;;20.20;35.30;;;;;;499606;237;2179;-72
2021/03/10 07:34:35;;;;;;;;;;;20.20;35.30;;;;;;499687;237;1029;-73
2021/03/10 07:36:36;;;;;;;;;;;20.20;35.30;;;;;;499717;237;1172;-72
2021/03/10 07:38:37;;;;;;;;;;;20.20;35.20;;;;;;499623;237;1042;-72
2021/03/10 07:40:39;;;;;;;;;;;20.20;35.20;;;;;;499638;237;1211;-72
2021/03/10 07:42:40;;;;;;;;;;;20.10;35.20;;;;;;499706;237;1176;-72
2021/03/10 07:44:41;;;;;;;;;;;20.10;35.20;;;;;;499563;237;1148;-72
2021/03/10 07:46:42;;;;;;;;;;;20.10;35.20;;;;;;499690;237;1191;-72
2021/03/10 07:48:44;;;;;;;;;;;20.10;35.30;;;;;;499435;237;1071;-72
2021/03/10 07:50:45;;;;;;;;;;;20.00;35.30;;;;;;499623;237;1181;-72
2021/03/10 07:52:46;;;;;;;;;;;20.00;35.30;;;;;;499697;237;2183;-72
2021/03/10 07:54:47;;;;;;;;;;;20.00;35.30;;;;;;499751;237;1068;-72
2021/03/10 07:56:49;;;;;;;;;;;20.00;35.30;;;;;;499704;237;1209;-72
2021/03/10 07:58:50;;;;;;;;;;;20.10;35.30;;;;;;499526;237;1050;-72
2021/03/10 08:00:52;;;;;;;;;;;20.10;35.30;;;;;;499309;237;1121;-72
2021/03/10 08:02:53;;;;;;;;;;;20.10;35.30;;;;;;499412;237;1046;-72
2021/03/10 08:04:54;;;;;;;;;;;20.10;35.30;;;;;;499414;237;1059;-72
2021/03/10 08:06:55;;;;;;;;;;;20.10;35.40;;;;;;499453;234;1300;-73
2021/03/10 08:08:57;;;;;;;;;;;20.10;35.50;;;;;;499597;237;1264;-72
2021/03/10 08:10:58;;;;;;;;;;;20.10;35.40;;;;;;499495;237;1037;-72
2021/03/10 08:12:59;;;;;;;;;;;20.10;35.40;;;;;;499601;237;2188;-72
2021/03/10 08:15:00;;;;;;;;;;;20.00;35.40;;;;;;499534;237;1055;-72
2021/03/10 08:17:02;;;;;;;;;;;20.00;35.40;;;;;;499445;237;1051;-72
2021/03/10 08:19:03;;;;;;;;;;;20.10;35.50;;;;;;499331;237;1048;-72
2021/03/10 08:21:04;;;;;;;;;;;20.10;35.50;;;;;;499168;237;1229;-73
2021/03/10 08:23:06;;;;;;;;;;;20.20;35.40;;;;;;499395;237;1091;-72
2021/03/10 08:25:07;;;;;;;;;;;20.30;35.00;;;;;;499440;237;1032;-72
2021/03/10 08:27:08;;;;;;;;;;;20.40;34.90;;;;;;499506;237;1046;-72
2021/03/10 08:29:09;;;;;;;;;;;20.50;34.70;;;;;;499176;237;1114;-74
2021/03/10 08:31:11;;;;;;;;;;;20.60;34.60;;;;;;499272;237;1067;-74
2021/03/10 08:33:12;;;;;;;;;;;20.70;34.40;;;;;;499278;237;2191;-73
2021/03/10 08:35:13;;;;;;;;;;;20.70;34.50;;;;;;499614;237;1021;-73
2021/03/10 08:37:15;;;;;;;;;;;20.70;34.40;;;;;;499543;237;1168;-73
2021/03/10 08:39:16;;;;;;;;;;;20.70;34.50;;;;;;499380;237;1034;-73
2021/03/10 08:41:17;;;;;;;;;;;20.70;34.50;;;;;;499449;237;1326;-73
2021/03/10 08:43:18;;;;;;;;;;;20.70;34.40;;;;;;499562;237;1108;-73
2021/03/10 08:45:20;;;;;;;;;;;20.80;34.40;;;;;;499439;237;1212;-73
2021/03/10 08:47:21;;;;;;;;;;;20.70;34.30;;;;;;499616;237;1151;-73
2021/03/10 08:49:23;;;;;;;;;;;20.70;34.30;;;;;;499526;237;1042;-73
2021/03/10 08:51:24;;;;;;;;;;;20.80;34.40;;;;;;499546;237;2149;-73
2021/03/10 08:53:25;;;;;;;;;;;20.80;34.30;;;;;;499368;237;2191;-73
2021/03/10 08:55:27;;;;;;;;;;;20.80;34.40;;;;;;499263;237;1118;-73
2021/03/10 08:57:28;;;;;;;;;;;20.80;34.40;;;;;;499429;237;1216;-73
2021/03/10 08:59:29;;;;;;;;;;;20.80;34.20;;;;;;499392;237;1021;-73
2021/03/10 09:01:31;;;;;;;;;;;20.80;34.20;;;;;;499384;237;1207;-73
2021/03/10 09:03:32;;;;;;;;;;;20.90;34.10;;;;;;499357;237;1190;-73
2021/03/10 09:05:33;;;;;;;;;;;20.90;34.10;;;;;;499369;237;1195;-73
2021/03/10 09:07:34;;;;;;;;;;;20.80;34.30;;;;;;499516;237;1186;-73
2021/03/10 09:09:36;;;;;;;;;;;20.90;34.30;;;;;;499229;237;1049;-74
2021/03/10 09:11:37;;;;;;;;;;;20.90;34.30;;;;;;499206;237;1123;-73
2021/03/10 09:13:38;;;;;;;;;;;20.80;34.30;;;;;;499544;237;2136;-73
2021/03/10 09:15:40;;;;;;;;;;;20.80;34.40;;;;;;499348;237;1012;-73
2021/03/10 09:17:41;;;;;;;;;;;20.90;34.40;;;;;;499499;237;1135;-73
2021/03/10 09:19:42;;;;;;;;;;;20.90;34.30;;;;;;499494;237;1117;-73
2021/03/10 09:21:44;;;;;;;;;;;20.90;34.30;;;;;;499454;237;1227;-73
2021/03/10 09:23:45;;;;;;;;;;;20.90;34.20;;;;;;499318;237;1161;-73
2021/03/10 09:25:46;;;;;;;;;;;20.90;34.30;;;;;;499285;237;1227;-73
2021/03/10 09:27:48;;;;;;;;;;;20.80;34.40;;;;;;499628;237;1096;-73
2021/03/10 09:29:49;;;;;;;;;;;20.90;34.40;;;;;;499557;237;1083;-73
2021/03/10 09:31:50;;;;;;;;;;;20.80;34.40;;;;;;499419;237;1179;-73
2021/03/10 09:33:51;;;;;;;;;;;20.80;34.40;;;;;;499571;237;2160;-73
2021/03/10 09:35:53;;;;;;;;;;;20.80;34.40;;;;;;499564;237;1277;-73
2021/03/10 09:37:54;;;;;;;;;;;20.80;34.40;;;;;;499802;237;1183;-73
2021/03/10 09:39:55;;;;;;;;;;;20.90;34.30;;;;;;499502;237;1040;-73
2021/03/10 09:41:58;;;;;;;;;;;20.90;34.10;;;;;;499460;237;1074;-73
2021/03/10 09:43:58;;;;;;;;;;;21.00;34.00;;;;;;499773;237;2108;-73
2021/03/10 09:45:59;;;;;;;;;;;20.90;34.10;;;;;;499532;237;1185;-73
2021/03/10 09:48:01;;;;;;;;;;;20.90;34.00;;;;;;499643;237;1197;-73
2021/03/10 09:50:03;;;;;;;;;;;21.00;33.90;;;;;;499397;237;1051;-73
2021/03/10 09:52:03;;;;;;;;;;;21.00;34.10;;;;;;499984;237;1489;-73
2021/03/10 09:54:05;;;;;;;;;;;21.00;34.00;;;;;;499464;237;2196;-73
2021/03/10 09:56:06;;;;;;;;;;;21.00;33.90;;;;;;499436;237;1120;-73
2021/03/10 09:58:07;;;;;;;;;;;21.00;33.80;;;;;;499470;237;1195;-73
2021/03/10 10:00:09;;;;;;;;;;;21.10;33.70;;;;;;499449;237;1071;-73
2021/03/10 10:02:10;;;;;;;;;;;21.10;33.80;;;;;;499329;237;1161;-73
2021/03/10 10:04:11;;;;;;;;;;;21.10;33.80;;;;;;499338;237;1015;-73
2021/03/10 10:06:16;;;;;;;;;;;21.10;33.90;;;;;;499317;237;1543;-73
2021/03/10 10:08:14;;;;;;;;;;;21.00;33.80;;;;;;499479;237;2146;-73
2021/03/10 10:10:15;;;;;;;;;;;21.10;33.90;;;;;;499405;237;1047;-73
2021/03/10 10:12:16;;;;;;;;;;;21.20;33.80;;;;;;499443;237;2160;-73
2021/03/10 10:14:18;;;;;;;;;;;21.10;33.80;;;;;;499523;237;1065;-73
2021/03/10 10:16:19;;;;;;;;;;;21.20;33.70;;;;;;499533;237;1183;-73
2021/03/10 10:18:20;;;;;;;;;;;21.20;33.70;;;;;;499409;237;1124;-73
2021/03/10 10:20:21;;;;;;;;;;;21.10;33.90;;;;;;499454;237;1097;-73
2021/03/10 10:22:23;;;;;;;;;;;21.20;33.70;;;;;;499681;237;1098;-73
2021/03/10 10:24:24;;;;;;;;;;;21.10;33.90;;;;;;499378;237;1113;-73
2021/03/10 10:26:25;;;;;;;;;;;21.10;34.00;;;;;;499326;237;1145;-72
2021/03/10 10:28:27;;;;;;;;;;;21.20;33.80;;;;;;499477;237;1222;-72
2021/03/10 10:30:28;;;;;;;;;;;21.20;33.80;;;;;;499530;237;1177;-72
2021/03/10 10:32:29;;;;;;;;;;;21.20;33.80;;;;;;499597;237;2135;-72
2021/03/10 10:34:30;;;;;;;;;;;21.30;33.60;;;;;;499546;237;1264;-72
2021/03/10 10:36:32;;;;;;;;;;;21.30;33.70;;;;;;499540;237;1208;-72
2021/03/10 10:38:33;;;;;;;;;;;21.30;33.70;;;;;;499466;237;1118;-73
2021/03/10 10:40:34;;;;;;;;;;;21.30;33.60;;;;;;499490;237;1200;-72
2021/03/10 10:42:35;;;;;;;;;;;21.30;33.60;;;;;;499535;237;1147;-72
2021/03/10 10:44:37;;;;;;;;;;;21.40;33.60;;;;;;499374;237;1009;-72
2021/03/10 10:46:38;;;;;;;;;;;21.50;33.40;;;;;;499393;237;1099;-72
2021/03/10 10:48:39;;;;;;;;;;;21.50;33.50;;;;;;499424;237;1041;-72
2021/03/10 10:50:41;;;;;;;;;;;21.50;33.60;;;;;;499346;237;1044;-72
2021/03/10 10:52:44;;;;;;;;;;;21.40;33.60;;;;;;499345;237;2127;-72
2021/03/10 10:54:43;;;;;;;;;;;21.50;33.60;;;;;;499386;237;2026;-72
2021/03/10 10:56:44;;;;;;;;;;;21.50;33.70;;;;;;499249;237;1090;-72
2021/03/10 10:58:46;;;;;;;;;;;21.50;33.50;;;;;;499434;237;1055;-72
2021/03/10 11:00:47;;;;;;;;;;;21.50;33.50;;;;;;499321;237;1096;-72
2021/03/10 11:02:48;;;;;;;;;;;21.50;33.50;;;;;;499285;237;1055;-72
2021/03/10 11:04:50;;;;;;;;;;;21.50;33.60;;;;;;499374;237;1163;-72
2021/03/10 11:06:51;;;;;;;;;;;21.60;33.50;;;;;;499374;237;1082;-72
2021/03/10 11:08:52;;;;;;;;;;;21.50;33.50;;;;;;499444;237;1183;-72
2021/03/10 11:10:54;;;;;;;;;;;21.60;33.50;;;;;;499474;237;1468;-72
2021/03/10 11:12:55;;;;;;;;;;;21.60;33.50;;;;;;499704;237;2207;-72
2021/03/10 11:14:56;;;;;;;;;;;21.60;33.40;;;;;;499496;237;1063;-72
2021/03/10 11:16:58;;;;;;;;;;;21.60;33.40;;;;;;499557;237;1284;-72
2021/03/10 11:18:59;;;;;;;;;;;21.70;33.30;;;;;;499534;237;1108;-72
2021/03/10 11:21:00;;;;;;;;;;;21.80;33.30;;;;;;499473;237;1283;-73
2021/03/10 11:23:01;;;;;;;;;;;21.70;33.40;;;;;;499477;237;1062;-72
2021/03/10 11:25:03;;;;;;;;;;;21.70;33.30;;;;;;499353;237;1185;-72
2021/03/10 11:27:04;;;;;;;;;;;21.70;33.20;;;;;;499133;237;1082;-72
2021/03/10 11:29:05;;;;;;;;;;;21.80;33.10;;;;;;499480;237;989;-72
2021/03/10 11:31:07;;;;;;;;;;;21.80;33.10;;;;;;499505;237;992;-74
2021/03/10 11:33:08;;;;;;;;;;;21.70;33.20;;;;;;499460;237;2168;-74
2021/03/10 11:35:09;;;;;;;;;;;21.80;33.00;;;;;;499559;237;1003;-72
2021/03/10 11:39:21;;;;;;;;;;;21.70;33.10;;;;;;497102;238;2626;-72
2021/03/10 11:41:22;;;;;;;;;;;21.40;33.50;;;;;;505413;234;1096;-72
2021/03/10 11:43:23;;;;;;;;;;;21.30;33.70;;;;;;499497;238;1057;-72
2021/03/10 11:45:24;;;;;;;;;;;21.20;33.80;;;;;;498191;237;1173;-72
2021/03/10 11:47:26;;;;;;;;;;;21.40;33.60;;;;;;497806;239;1434;-71
2021/03/10 11:49:27;;;;;;;;;;;21.30;33.60;;;;;;497641;239;1037;-76
2021/03/10 11:51:28;;;;;;;;;;;21.50;33.70;;;;;;497546;239;1136;-74
2021/03/10 11:53:30;;;;;;;;;;;21.50;33.60;;;;;;497765;239;2184;-75
2021/03/10 11:55:31;;;;;;;;;;;21.40;33.70;;;;;;497798;239;1211;-74
2021/03/10 11:57:32;;;;;;;;;;;21.50;33.60;;;;;;497919;239;1101;-75
2021/03/10 11:59:33;;;;;;;;;;;21.50;33.50;;;;;;497859;239;1127;-74